createdAt,value
2019-02-18T00:00:23.657Z,-942.15
2019-02-18T00:01:23.894Z,-941.16
2019-02-18T00:02:24.145Z,-942.18
2019-02-18T00:03:24.367Z,-940.54
2019-02-18T00:04:24.615Z,-942.98
2019-02-18T00:05:24.906Z,-938.38
2019-02-18T00:06:25.081Z,-943.74
2019-02-18T00:07:25.347Z,-943.03
2019-02-18T00:08:25.570Z,-940.06
2019-02-18T00:09:25.845Z,-939.74
2019-02-18T00:10:26.042Z,-944.62
2019-02-18T00:11:26.271Z,-944.19
2019-02-18T00:12:26.526Z,-943.09
2019-02-18T00:13:26.850Z,-941.58
2019-02-18T00:14:27.022Z,-945.58
2019-02-18T00:15:27.225Z,-947.87
2019-02-18T00:16:27.566Z,-945.50
2019-02-18T00:17:27.705Z,-948.53
2019-02-18T00:18:27.942Z,-951.97
2019-02-18T00:19:28.196Z,-948.62
2019-02-18T00:20:28.417Z,-950.00
2019-02-18T00:21:28.716Z,-948.18
2019-02-18T00:22:28.892Z,-947.86
2019-02-18T00:23:29.102Z,-949.95
2019-02-18T00:24:29.400Z,-950.04
2019-02-18T00:25:29.589Z,-944.50
2019-02-18T00:26:29.845Z,-945.57
2019-02-18T00:27:30.103Z,-943.23
2019-02-18T00:28:30.306Z,-946.55
2019-02-18T00:29:30.586Z,-944.74
2019-02-18T00:30:30.814Z,-952.09
2019-02-18T00:31:31.034Z,-948.20
2019-02-18T00:32:31.283Z,-945.88
2019-02-18T00:33:31.500Z,-945.95
2019-02-18T00:34:31.757Z,-950.07
2019-02-18T00:35:31.967Z,-946.69
2019-02-18T00:36:32.221Z,-938.04
2019-02-18T00:37:32.483Z,-948.47
2019-02-18T00:38:32.811Z,-943.05
2019-02-18T00:39:32.942Z,-944.41
2019-02-18T00:40:33.228Z,-947.51
2019-02-18T00:41:33.428Z,-946.73
2019-02-18T00:42:33.681Z,-947.78
2019-02-18T00:43:33.900Z,-949.12
2019-02-18T00:44:34.153Z,-946.53
2019-02-18T00:45:34.378Z,-947.83
2019-02-18T00:46:34.803Z,-948.52
2019-02-18T00:47:34.921Z,-944.08
2019-02-18T00:48:35.133Z,-943.23
2019-02-18T00:49:35.369Z,-950.98
2019-02-18T00:50:35.614Z,-948.60
2019-02-18T00:51:35.847Z,-948.40
2019-02-18T00:52:36.113Z,-953.06
2019-02-18T00:53:36.323Z,-949.81
2019-02-18T00:54:36.623Z,-951.17
2019-02-18T00:55:36.808Z,-948.86
2019-02-18T00:56:37.013Z,-948.74
2019-02-18T00:57:37.285Z,-950.72
2019-02-18T00:58:37.733Z,-951.10
2019-02-18T00:59:37.744Z,-949.38
2019-02-18T01:00:38.066Z,-948.76
2019-02-18T01:01:38.220Z,-951.96
2019-02-18T01:02:38.544Z,-947.77
2019-02-18T01:03:38.675Z,-949.51
2019-02-18T01:04:38.921Z,-945.36
2019-02-18T01:05:39.187Z,-948.62
2019-02-18T01:06:39.409Z,-947.35
2019-02-18T01:07:39.682Z,-949.12
2019-02-18T01:08:39.861Z,-947.50
2019-02-18T01:09:40.122Z,-948.61
2019-02-18T01:10:40.444Z,-949.69
2019-02-18T01:11:40.675Z,-946.55
2019-02-18T01:12:40.885Z,-950.38
2019-02-18T01:13:41.076Z,-943.39
2019-02-18T01:14:41.330Z,-947.45
2019-02-18T01:15:41.593Z,-944.71
2019-02-18T01:16:41.798Z,-947.00
2019-02-18T01:17:42.062Z,-947.80
2019-02-18T01:18:42.291Z,-949.82
2019-02-18T01:19:42.633Z,-948.54
2019-02-18T01:20:42.793Z,-945.56
2019-02-18T01:21:43.005Z,-944.79
2019-02-18T01:22:43.248Z,-950.76
2019-02-18T01:23:43.457Z,-947.37
2019-02-18T01:24:43.703Z,-947.73
2019-02-18T01:25:44.266Z,-947.68
2019-02-18T01:26:44.206Z,-945.14
2019-02-18T01:27:44.583Z,-955.06
2019-02-18T01:28:44.663Z,-945.62
2019-02-18T01:29:44.890Z,-949.11
2019-02-18T01:30:45.476Z,-944.90
2019-02-18T01:31:45.378Z,-947.49
2019-02-18T01:32:45.635Z,-947.26
2019-02-18T01:33:45.856Z,-941.68
2019-02-18T01:34:46.096Z,-953.33
2019-02-18T01:35:46.394Z,-949.90
2019-02-18T01:36:46.555Z,-945.49
2019-02-18T01:37:46.798Z,-951.73
2019-02-18T01:38:47.036Z,-947.70
2019-02-18T01:39:47.273Z,-950.15
2019-02-18T01:40:47.564Z,-948.29
2019-02-18T01:41:47.728Z,-947.66
2019-02-18T01:42:47.982Z,-946.41
2019-02-18T01:43:48.327Z,-948.10
2019-02-18T01:44:48.513Z,-946.15
2019-02-18T01:45:48.790Z,-947.95
2019-02-18T01:46:48.973Z,-951.08
2019-02-18T01:47:49.222Z,-949.75
2019-02-18T01:48:49.483Z,-952.27
2019-02-18T01:49:49.725Z,-949.75
2019-02-18T01:50:49.977Z,-949.40
2019-02-18T01:51:50.239Z,-947.95
2019-02-18T01:52:50.550Z,-948.76
2019-02-18T01:53:50.691Z,-945.95
2019-02-18T01:54:50.913Z,-949.49
2019-02-18T01:55:51.168Z,-954.55
2019-02-18T01:56:51.406Z,-949.71
2019-02-18T01:57:51.631Z,-949.91
2019-02-18T01:58:51.867Z,-942.83
2019-02-18T01:59:52.105Z,-949.23
2019-02-18T02:00:52.490Z,-945.19
2019-02-18T02:01:52.570Z,-949.23
2019-02-18T02:02:52.818Z,-946.12
2019-02-18T02:03:53.077Z,-952.14
2019-02-18T02:04:53.315Z,-947.24
2019-02-18T02:05:53.575Z,-950.34
2019-02-18T02:06:53.789Z,-951.07
2019-02-18T02:07:56.405Z,-949.70
2019-02-18T02:08:54.318Z,-951.37
2019-02-18T02:09:54.489Z,-945.41
2019-02-18T02:10:54.749Z,-946.52
2019-02-18T02:11:54.972Z,-949.08
2019-02-18T02:12:55.225Z,-948.87
2019-02-18T02:13:55.468Z,-955.63
2019-02-18T02:14:55.674Z,-947.67
2019-02-18T02:15:55.946Z,-946.53
2019-02-18T02:16:56.253Z,-946.39
2019-02-18T02:17:56.421Z,-953.70
2019-02-18T02:18:56.667Z,-945.29
2019-02-18T02:19:56.898Z,-950.59
2019-02-18T02:20:57.122Z,-950.34
2019-02-18T02:21:57.363Z,-947.74
2019-02-18T02:22:57.639Z,-950.54
2019-02-18T02:23:57.880Z,-949.05
2019-02-18T02:24:58.127Z,-949.71
2019-02-18T02:25:58.594Z,-944.74
2019-02-18T02:26:58.563Z,-944.59
2019-02-18T02:27:58.901Z,-942.81
2019-02-18T02:28:59.070Z,-949.25
2019-02-18T02:29:59.288Z,-948.72
2019-02-18T02:31:00.827Z,-947.57
2019-02-18T02:31:59.753Z,-944.29
2019-02-18T02:33:00.014Z,-948.92
2019-02-18T02:34:00.365Z,-942.53
2019-02-18T02:35:00.715Z,-942.86
2019-02-18T02:36:00.814Z,-949.90
2019-02-18T02:37:00.943Z,-947.42
2019-02-18T02:38:07.227Z,-950.78
2019-02-18T02:39:02.438Z,-951.44
2019-02-18T02:40:01.657Z,-947.43
2019-02-18T02:41:01.917Z,-946.31
2019-02-18T02:42:02.294Z,-954.34
2019-02-18T02:43:02.396Z,-947.74
2019-02-18T02:44:02.644Z,-952.65
2019-02-18T02:45:02.864Z,-950.59
2019-02-18T02:46:03.115Z,-948.83
2019-02-18T02:47:03.333Z,-954.78
2019-02-18T02:48:03.568Z,-947.51
2019-02-18T02:49:03.825Z,-952.50
2019-02-18T02:50:04.083Z,-945.86
2019-02-18T02:51:04.285Z,-950.39
2019-02-18T02:52:04.513Z,-953.35
2019-02-18T02:53:04.770Z,-946.34
2019-02-18T02:54:04.989Z,-950.41
2019-02-18T02:55:05.225Z,-951.49
2019-02-18T02:56:05.467Z,-953.74
2019-02-18T02:57:05.702Z,-952.89
2019-02-18T02:58:05.997Z,-945.40
2019-02-18T02:59:06.174Z,-937.83
2019-02-18T03:00:06.386Z,-932.29
2019-02-18T03:01:06.648Z,-937.16
2019-02-18T03:02:06.896Z,-944.73
2019-02-18T03:03:07.156Z,-938.05
2019-02-18T03:04:07.390Z,-941.99
2019-02-18T03:05:07.608Z,-943.92
2019-02-18T03:06:07.849Z,-943.18
2019-02-18T03:07:08.201Z,-940.32
2019-02-18T03:08:19.351Z,-943.25
2019-02-18T03:09:09.569Z,-948.72
2019-02-18T03:10:08.793Z,-947.26
2019-02-18T03:11:09.017Z,-946.34
2019-02-18T03:12:09.281Z,-947.50
2019-02-18T03:13:09.537Z,-946.60
2019-02-18T03:14:10.134Z,-945.86
2019-02-18T03:15:10.115Z,-950.72
2019-02-18T03:16:10.214Z,-947.30
2019-02-18T03:17:10.486Z,-943.14
2019-02-18T03:18:10.699Z,-948.53
2019-02-18T03:19:10.983Z,-952.38
2019-02-18T03:20:11.188Z,-955.03
2019-02-18T03:21:11.420Z,-942.13
2019-02-18T03:22:11.659Z,-944.20
2019-02-18T03:23:11.992Z,-949.19
2019-02-18T03:24:12.172Z,-947.45
2019-02-18T03:25:12.381Z,-949.30
2019-02-18T03:26:12.613Z,-948.83
2019-02-18T03:27:12.869Z,-945.81
2019-02-18T03:28:13.071Z,-953.24
2019-02-18T03:29:13.361Z,-950.27
2019-02-18T03:30:13.557Z,-951.19
2019-02-18T03:31:13.847Z,-958.84
2019-02-18T03:32:14.040Z,-900.44
2019-02-18T03:33:14.256Z,-952.09
2019-02-18T03:34:14.545Z,-953.31
2019-02-18T03:35:14.760Z,-943.91
2019-02-18T03:36:14.985Z,-943.86
2019-02-18T03:37:15.247Z,-897.39
2019-02-18T03:38:15.467Z,-901.94
2019-02-18T03:39:15.775Z,-900.99
2019-02-18T03:40:15.977Z,-899.83
2019-02-18T03:41:16.187Z,-900.84
2019-02-18T03:42:16.461Z,-898.51
2019-02-18T03:43:16.664Z,-896.50
2019-02-18T03:44:16.924Z,-898.14
2019-02-18T03:45:17.126Z,-896.37
2019-02-18T03:46:17.374Z,-898.87
2019-02-18T03:47:17.648Z,-893.86
2019-02-18T03:48:17.955Z,-897.21
2019-02-18T03:49:18.108Z,-904.43
2019-02-18T03:50:18.316Z,-897.26
2019-02-18T03:51:18.559Z,-899.45
2019-02-18T03:52:18.819Z,-897.23
2019-02-18T03:53:19.033Z,-894.42
2019-02-18T03:54:19.294Z,-893.09
2019-02-18T03:55:19.515Z,-901.81
2019-02-18T03:56:19.830Z,-904.98
2019-02-18T03:57:19.999Z,-891.92
2019-02-18T03:58:20.227Z,-897.62
2019-02-18T03:59:20.464Z,-900.45
2019-02-18T04:00:20.750Z,-900.97
2019-02-18T04:01:20.942Z,-896.18
2019-02-18T04:02:21.199Z,-897.53
2019-02-18T04:03:21.414Z,-896.91
2019-02-18T04:04:21.724Z,-895.44
2019-02-18T04:05:21.928Z,-899.52
2019-02-18T04:06:22.126Z,-900.57
2019-02-18T04:07:22.386Z,-897.51
2019-02-18T04:08:22.619Z,-896.81
2019-02-18T04:09:22.860Z,-901.98
2019-02-18T04:10:23.123Z,-903.76
2019-02-18T04:11:23.353Z,-899.23
2019-02-18T04:12:23.640Z,-901.92
2019-02-18T04:13:23.807Z,-905.33
2019-02-18T04:14:24.060Z,-900.42
2019-02-18T04:15:24.569Z,-903.84
2019-02-18T04:16:24.539Z,-909.86
2019-02-18T04:17:24.801Z,-897.16
2019-02-18T04:18:25.017Z,-894.82
2019-02-18T04:19:25.243Z,-903.91
2019-02-18T04:20:25.552Z,-901.69
2019-02-18T04:21:25.813Z,-898.86
2019-02-18T04:22:25.999Z,-901.88
2019-02-18T04:23:26.175Z,-902.44
2019-02-18T04:24:26.448Z,-898.88
2019-02-18T04:25:26.713Z,-905.60
2019-02-18T04:26:26.989Z,-902.01
2019-02-18T04:27:27.191Z,-904.72
2019-02-18T04:28:27.417Z,-896.91
2019-02-18T04:29:27.752Z,-907.23
2019-02-18T04:30:27.918Z,-904.45
2019-02-18T04:31:28.157Z,-903.47
2019-02-18T04:32:28.393Z,-905.57
2019-02-18T04:33:28.608Z,-899.46
2019-02-18T04:34:28.835Z,-906.07
2019-02-18T04:35:29.111Z,-899.82
2019-02-18T04:36:29.363Z,-899.79
2019-02-18T04:37:29.708Z,-900.64
2019-02-18T04:38:29.810Z,-899.16
2019-02-18T04:39:30.029Z,-902.74
2019-02-18T04:40:30.305Z,-895.21
2019-02-18T04:41:30.560Z,-901.97
2019-02-18T04:42:30.795Z,-899.64
2019-02-18T04:43:31.019Z,-901.25
2019-02-18T04:44:31.251Z,-899.39
2019-02-18T04:45:31.538Z,-903.53
2019-02-18T04:46:31.728Z,-902.70
2019-02-18T04:47:31.986Z,-900.01
2019-02-18T04:48:32.205Z,-900.26
2019-02-18T04:49:32.444Z,-900.35
2019-02-18T04:50:32.716Z,-901.71
2019-02-18T04:51:32.941Z,-900.32
2019-02-18T04:52:33.151Z,-899.53
2019-02-18T04:53:33.444Z,-900.29
2019-02-18T04:54:33.617Z,-899.14
2019-02-18T04:55:33.883Z,-906.93
2019-02-18T04:56:34.120Z,-902.47
2019-02-18T04:57:34.346Z,-898.86
2019-02-18T04:58:34.581Z,-902.14
2019-02-18T04:59:34.838Z,-903.54
2019-02-18T05:00:35.083Z,-902.09
2019-02-18T05:01:35.343Z,-900.18
2019-02-18T05:02:35.618Z,-903.95
2019-02-18T05:03:35.793Z,-898.12
2019-02-18T05:04:36.015Z,-905.13
2019-02-18T05:05:36.277Z,-901.40
2019-02-18T05:06:36.513Z,-899.02
2019-02-18T05:07:36.733Z,-899.53
2019-02-18T05:08:36.954Z,-897.17
2019-02-18T05:09:39.729Z,-899.07
2019-02-18T05:10:37.588Z,-904.73
2019-02-18T05:11:37.721Z,-900.78
2019-02-18T05:12:37.924Z,-899.30
2019-02-18T05:13:38.181Z,-904.15
2019-02-18T05:14:38.445Z,-903.78
2019-02-18T05:15:40.114Z,-898.83
2019-02-18T05:16:38.928Z,-899.40
2019-02-18T05:17:39.154Z,-896.52
2019-02-18T05:18:39.485Z,-894.68
2019-02-18T05:19:39.616Z,-901.17
2019-02-18T05:20:39.870Z,-904.20
2019-02-18T05:21:40.100Z,-895.87
2019-02-18T05:22:40.334Z,-900.38
2019-02-18T05:23:40.587Z,-900.79
2019-02-18T05:24:40.790Z,-904.13
2019-02-18T05:25:41.055Z,-899.85
2019-02-18T05:26:41.357Z,-904.96
2019-02-18T05:27:41.500Z,-897.53
2019-02-18T05:28:41.766Z,-900.17
2019-02-18T05:29:41.984Z,-900.82
2019-02-18T05:30:42.217Z,-894.08
2019-02-18T05:31:42.455Z,-896.65
2019-02-18T05:32:42.693Z,-900.23
2019-02-18T05:33:42.950Z,-900.45
2019-02-18T05:34:43.192Z,-901.82
2019-02-18T05:35:43.429Z,-899.32
2019-02-18T05:36:43.667Z,-900.74
2019-02-18T05:37:43.902Z,-899.13
2019-02-18T05:38:44.145Z,-898.17
2019-02-18T05:39:44.371Z,-901.29
2019-02-18T05:40:44.625Z,-893.15
2019-02-18T05:41:44.864Z,-899.18
2019-02-18T05:42:45.121Z,-889.28
2019-02-18T05:43:45.432Z,-896.04
2019-02-18T05:44:45.556Z,-892.55
2019-02-18T05:45:45.813Z,-893.31
2019-02-18T05:46:46.033Z,-893.73
2019-02-18T05:47:46.277Z,-897.17
2019-02-18T05:48:46.533Z,-890.90
2019-02-18T05:49:46.754Z,-894.56
2019-02-18T05:50:47.009Z,-892.49
2019-02-18T05:51:47.371Z,-890.49
2019-02-18T05:52:47.488Z,-889.58
2019-02-18T05:53:47.971Z,-883.40
2019-02-18T05:54:47.964Z,-893.18
2019-02-18T05:55:48.218Z,-882.49
2019-02-18T05:56:48.438Z,-890.00
2019-02-18T05:57:48.691Z,-887.27
2019-02-18T05:58:48.912Z,-883.42
2019-02-18T05:59:49.201Z,-884.83
2019-02-18T06:00:49.385Z,-891.89
2019-02-18T06:01:49.630Z,-887.71
2019-02-18T06:02:49.850Z,-887.27
2019-02-18T06:03:50.081Z,-898.76
2019-02-18T06:04:50.307Z,-896.40
2019-02-18T06:05:50.581Z,-891.11
2019-02-18T06:06:50.818Z,-894.77
2019-02-18T06:07:51.070Z,-883.65
2019-02-18T06:08:51.270Z,-887.78
2019-02-18T06:09:51.471Z,-889.58
2019-02-18T06:10:51.742Z,-890.23
2019-02-18T06:11:51.996Z,-882.41
2019-02-18T06:12:52.222Z,-885.85
2019-02-18T06:13:52.485Z,-896.72
2019-02-18T06:14:52.695Z,-891.26
2019-02-18T06:15:52.967Z,-890.21
2019-02-18T06:16:53.259Z,-896.72
2019-02-18T06:17:53.439Z,-895.89
2019-02-18T06:18:53.688Z,-898.07
2019-02-18T06:19:53.906Z,-896.51
2019-02-18T06:20:54.127Z,-892.03
2019-02-18T06:21:54.393Z,-891.11
2019-02-18T06:22:54.659Z,-894.71
2019-02-18T06:23:54.913Z,-894.30
2019-02-18T06:24:55.273Z,-890.33
2019-02-18T06:25:55.342Z,-894.64
2019-02-18T06:26:55.604Z,-895.46
2019-02-18T06:27:55.843Z,-893.80
2019-02-18T06:28:56.081Z,-891.97
2019-02-18T06:29:56.306Z,-890.85
2019-02-18T06:30:56.549Z,-890.02
2019-02-18T06:31:56.789Z,-897.70
2019-02-18T06:32:57.110Z,-892.98
2019-02-18T06:33:57.269Z,-892.73
2019-02-18T06:34:57.487Z,-889.95
2019-02-18T06:35:57.731Z,-881.84
2019-02-18T06:36:57.968Z,-877.15
2019-02-18T06:37:58.207Z,-882.29
2019-02-18T06:38:58.462Z,-882.79
2019-02-18T06:39:58.683Z,-887.95
2019-02-18T06:40:58.979Z,-887.89
2019-02-18T06:41:59.157Z,-893.46
2019-02-18T06:42:59.383Z,-886.99
2019-02-18T06:43:59.636Z,-857.95
2019-02-18T06:44:59.876Z,-862.29
2019-02-18T06:46:00.107Z,-860.78
2019-02-18T06:47:00.368Z,-868.55
2019-02-18T06:48:00.620Z,-874.43
2019-02-18T06:49:00.885Z,-875.62
2019-02-18T06:50:01.070Z,-875.30
2019-02-18T06:51:01.304Z,-880.32
2019-02-18T06:52:01.566Z,-882.70
2019-02-18T06:53:01.789Z,-874.42
2019-02-18T06:54:02.041Z,-886.27
2019-02-18T06:55:02.245Z,-878.48
2019-02-18T06:56:02.486Z,-877.76
2019-02-18T06:57:02.752Z,-877.05
2019-02-18T06:58:03.101Z,-879.59
2019-02-18T06:59:03.861Z,-879.18
2019-02-18T07:00:03.430Z,-882.78
2019-02-18T07:01:03.678Z,-887.49
2019-02-18T07:02:03.931Z,-881.93
2019-02-18T07:03:04.166Z,-885.76
2019-02-18T07:04:04.413Z,-884.58
2019-02-18T07:05:04.649Z,-884.56
2019-02-18T07:06:04.976Z,-883.11
2019-02-18T07:07:05.118Z,-883.64
2019-02-18T07:08:05.363Z,-885.82
2019-02-18T07:09:05.600Z,-881.62
2019-02-18T07:10:05.820Z,-882.01
2019-02-18T07:11:06.064Z,-887.78
2019-02-18T07:12:06.334Z,-884.73
2019-02-18T07:13:06.648Z,-887.33
2019-02-18T07:14:06.873Z,-882.77
2019-02-18T07:15:07.014Z,-881.46
2019-02-18T07:16:07.246Z,-884.13
2019-02-18T07:17:07.513Z,-882.41
2019-02-18T07:18:07.743Z,-885.34
2019-02-18T07:19:07.982Z,-883.82
2019-02-18T07:20:08.231Z,-881.35
2019-02-18T07:21:08.464Z,-881.06
2019-02-18T07:22:08.745Z,-877.72
2019-02-18T07:23:08.923Z,-880.47
2019-02-18T07:24:09.170Z,-879.47
2019-02-18T07:25:09.419Z,-879.43
2019-02-18T07:26:09.653Z,-877.49
2019-02-18T07:27:09.927Z,-878.15
2019-02-18T07:28:10.126Z,-884.56
2019-02-18T07:29:10.399Z,-884.22
2019-02-18T07:30:10.675Z,-884.03
2019-02-18T07:31:10.957Z,-881.22
2019-02-18T07:32:11.391Z,-880.71
2019-02-18T07:33:11.354Z,-879.50
2019-02-18T07:34:11.597Z,-877.76
2019-02-18T07:35:11.834Z,-872.02
2019-02-18T07:36:12.062Z,-871.69
2019-02-18T07:37:12.320Z,-875.92
2019-02-18T07:38:12.545Z,-874.53
2019-02-18T07:39:12.996Z,-881.06
2019-02-18T07:40:13.029Z,-874.51
2019-02-18T07:41:13.258Z,-878.31
2019-02-18T07:42:13.508Z,-876.29
2019-02-18T07:43:13.719Z,-873.68
2019-02-18T07:44:14.009Z,-879.09
2019-02-18T07:45:14.205Z,-874.26
2019-02-18T07:46:14.441Z,-879.80
2019-02-18T07:47:14.765Z,-874.40
2019-02-18T07:48:14.982Z,-876.19
2019-02-18T07:49:15.154Z,-881.87
2019-02-18T07:50:20.597Z,-878.51
2019-02-18T07:51:16.642Z,-883.77
2019-02-18T07:52:15.908Z,-877.16
2019-02-18T07:53:16.189Z,-884.20
2019-02-18T07:54:16.356Z,-879.91
2019-02-18T07:55:16.632Z,-879.37
2019-02-18T07:56:16.815Z,-922.68
2019-02-18T07:57:17.104Z,-925.27
2019-02-18T07:58:17.325Z,-921.12
2019-02-18T07:59:17.551Z,-926.67
2019-02-18T08:00:17.822Z,-927.66
2019-02-18T08:01:18.014Z,-925.47
2019-02-18T08:02:18.267Z,-921.42
2019-02-18T08:03:18.581Z,-921.69
2019-02-18T08:04:18.721Z,-927.05
2019-02-18T08:05:18.999Z,-923.68
2019-02-18T08:06:19.232Z,-924.67
2019-02-18T08:07:19.458Z,-931.89
2019-02-18T08:08:19.677Z,-926.17
2019-02-18T08:09:19.933Z,-923.90
2019-02-18T08:10:20.197Z,-925.74
2019-02-18T08:11:20.442Z,-929.51
2019-02-18T08:12:20.755Z,-928.22
2019-02-18T08:13:20.882Z,-931.37
2019-02-18T08:14:21.141Z,-927.07
2019-02-18T08:15:21.404Z,-930.02
2019-02-18T08:16:21.616Z,-928.93
2019-02-18T08:17:21.864Z,-918.33
2019-02-18T08:18:22.092Z,-926.61
2019-02-18T08:19:22.309Z,-923.52
2019-02-18T08:20:22.700Z,-925.34
2019-02-18T08:21:22.806Z,-925.06
2019-02-18T08:22:23.041Z,-924.86
2019-02-18T08:23:23.264Z,-923.97
2019-02-18T08:24:23.525Z,-922.64
2019-02-18T08:25:23.805Z,-921.32
2019-02-18T08:26:24.062Z,-926.49
2019-02-18T08:27:24.258Z,-927.86
2019-02-18T08:28:24.636Z,-923.31
2019-02-18T08:29:24.842Z,-922.27
2019-02-18T08:30:25.074Z,-919.13
2019-02-18T08:31:25.253Z,-921.84
2019-02-18T08:32:25.497Z,-867.88
2019-02-18T08:33:25.763Z,-922.79
2019-02-18T08:34:25.981Z,-868.17
2019-02-18T08:35:26.595Z,-920.47
2019-02-18T08:36:26.551Z,-914.09
2019-02-18T08:37:26.660Z,-920.91
2019-02-18T08:38:26.931Z,-921.51
2019-02-18T08:39:27.170Z,-923.01
2019-02-18T08:40:27.444Z,-916.51
2019-02-18T08:41:27.625Z,-915.91
2019-02-18T08:42:27.870Z,-922.14
2019-02-18T08:43:28.136Z,-918.98
2019-02-18T08:44:28.469Z,-925.55
2019-02-18T08:45:28.663Z,-916.50
2019-02-18T08:46:28.827Z,-920.69
2019-02-18T08:47:29.059Z,-918.98
2019-02-18T08:48:29.344Z,-915.94
2019-02-18T08:49:29.565Z,-924.47
2019-02-18T08:50:29.834Z,-921.73
2019-02-18T08:51:30.029Z,-920.05
2019-02-18T08:52:30.289Z,-921.67
2019-02-18T08:53:30.673Z,-919.11
2019-02-18T08:54:30.806Z,-914.83
2019-02-18T08:55:31.027Z,-921.13
2019-02-18T08:56:31.217Z,-916.72
2019-02-18T08:57:31.458Z,-918.69
2019-02-18T08:58:31.733Z,-919.74
2019-02-18T08:59:31.973Z,-926.73
2019-02-18T09:00:32.266Z,-936.08
2019-02-18T09:01:32.585Z,-940.31
2019-02-18T09:02:32.667Z,-920.91
2019-02-18T09:03:33.016Z,-918.30
2019-02-18T09:04:33.170Z,-916.72
2019-02-18T09:05:33.441Z,-915.93
2019-02-18T09:06:33.620Z,-920.19
2019-02-18T09:07:33.886Z,-916.81
2019-02-18T09:08:34.120Z,-916.43
2019-02-18T09:09:34.427Z,-916.35
2019-02-18T09:10:34.854Z,-907.73
2019-02-18T09:11:34.826Z,-901.90
2019-02-18T09:12:35.051Z,-919.41
2019-02-18T09:13:35.334Z,-919.58
2019-02-18T09:14:35.514Z,-912.52
2019-02-18T09:15:35.809Z,-912.07
2019-02-18T09:16:36.006Z,-917.33
2019-02-18T09:17:36.293Z,-919.70
2019-02-18T09:18:36.491Z,-906.69
2019-02-18T09:19:36.738Z,-917.32
2019-02-18T09:20:37.011Z,-916.29
2019-02-18T09:21:37.220Z,-917.19
2019-02-18T09:22:37.446Z,-907.51
2019-02-18T09:23:37.708Z,-902.85
2019-02-18T09:24:37.940Z,-902.86
2019-02-18T09:25:38.296Z,-909.66
2019-02-18T09:26:38.432Z,-916.23
2019-02-18T09:27:38.643Z,-908.36
2019-02-18T09:28:38.908Z,-910.28
2019-02-18T09:29:39.126Z,-910.59
2019-02-18T09:30:39.437Z,-911.51
2019-02-18T09:31:39.626Z,-916.47
2019-02-18T09:32:39.871Z,-915.41
2019-02-18T09:33:40.144Z,-914.17
2019-02-18T09:34:40.475Z,-909.61
2019-02-18T09:35:40.622Z,-908.84
2019-02-18T09:36:40.838Z,-914.34
2019-02-18T09:37:41.118Z,-916.14
2019-02-18T09:38:41.340Z,-920.75
2019-02-18T09:39:41.542Z,-914.52
2019-02-18T09:40:45.110Z,-911.61
2019-02-18T09:41:43.032Z,-910.03
2019-02-18T09:42:42.410Z,-908.18
2019-02-18T09:43:42.517Z,-910.83
2019-02-18T09:44:42.723Z,-910.58
2019-02-18T09:45:42.980Z,-914.17
2019-02-18T09:46:43.239Z,-915.53
2019-02-18T09:47:43.430Z,-916.37
2019-02-18T09:48:43.695Z,-916.27
2019-02-18T09:49:43.923Z,-917.00
2019-02-18T09:50:44.203Z,-922.88
2019-02-18T09:51:44.478Z,-920.43
2019-02-18T09:52:44.604Z,-921.86
2019-02-18T09:53:44.899Z,-921.41
2019-02-18T09:54:45.124Z,-913.44
2019-02-18T09:55:45.361Z,-917.53
2019-02-18T09:56:45.639Z,-915.95
2019-02-18T09:57:45.841Z,-918.55
2019-02-18T09:58:46.184Z,-921.65
2019-02-18T09:59:46.311Z,-917.93
2019-02-18T10:00:46.559Z,-921.02
2019-02-18T10:01:46.826Z,-918.72
2019-02-18T10:02:47.118Z,-926.92
2019-02-18T10:03:47.293Z,-922.18
2019-02-18T10:04:47.503Z,-912.23
2019-02-18T10:05:47.746Z,-915.96
2019-02-18T10:06:48.057Z,-919.77
2019-02-18T10:07:48.314Z,-917.77
2019-02-18T10:08:48.509Z,-917.87
2019-02-18T10:09:48.698Z,-910.03
2019-02-18T10:10:55.433Z,-916.84
2019-02-18T10:11:50.222Z,-919.34
2019-02-18T10:12:49.434Z,-924.22
2019-02-18T10:13:49.708Z,-928.75
2019-02-18T10:14:49.935Z,-922.12
2019-02-18T10:15:50.274Z,-924.17
2019-02-18T10:16:50.420Z,-920.65
2019-02-18T10:17:50.631Z,-922.36
2019-02-18T10:18:50.886Z,-926.03
2019-02-18T10:19:51.111Z,-918.93
2019-02-18T10:20:51.329Z,-919.21
2019-02-18T10:21:51.607Z,-918.93
2019-02-18T10:22:51.833Z,-921.72
2019-02-18T10:23:52.253Z,-921.43
2019-02-18T10:24:52.305Z,-928.15
2019-02-18T10:25:52.535Z,-925.38
2019-02-18T10:26:52.818Z,-917.44
2019-02-18T10:27:53.031Z,-915.51
2019-02-18T10:28:53.273Z,-911.35
2019-02-18T10:29:53.504Z,-909.46
2019-02-18T10:30:53.743Z,-911.82
2019-02-18T10:31:54.021Z,-919.94
2019-02-18T10:32:54.200Z,-913.76
2019-02-18T10:33:54.446Z,-919.89
2019-02-18T10:34:54.708Z,-906.95
2019-02-18T10:35:54.941Z,-911.42
2019-02-18T10:36:55.207Z,-908.02
2019-02-18T10:37:55.562Z,-907.46
2019-02-18T10:38:55.662Z,-904.97
2019-02-18T10:39:55.970Z,-916.39
2019-02-18T10:41:05.983Z,-918.40
2019-02-18T10:41:57.410Z,-913.70
2019-02-18T10:42:56.602Z,-913.54
2019-02-18T10:43:56.863Z,-865.89
2019-02-18T10:44:57.118Z,-919.46
2019-02-18T10:45:57.341Z,-910.63
2019-02-18T10:46:57.594Z,-912.07
2019-02-18T10:47:58.117Z,-916.95
2019-02-18T10:48:58.104Z,-910.17
2019-02-18T10:49:58.306Z,-911.98
2019-02-18T10:50:58.528Z,-915.58
2019-02-18T10:51:58.792Z,-912.25
2019-02-18T10:52:59.005Z,-911.92
2019-02-18T10:53:59.243Z,-909.73
2019-02-18T10:54:59.498Z,-913.70
2019-02-18T10:55:59.713Z,-896.02
2019-02-18T10:57:00.337Z,-901.79
2019-02-18T10:58:00.397Z,-903.44
2019-02-18T10:59:00.644Z,-908.63
2019-02-18T11:00:00.870Z,-908.98
2019-02-18T11:01:01.104Z,-908.66
2019-02-18T11:02:01.383Z,-910.10
2019-02-18T11:03:01.605Z,-906.08
2019-02-18T11:04:01.844Z,-910.07
2019-02-18T11:05:02.136Z,-910.30
2019-02-18T11:06:02.317Z,-908.75
2019-02-18T11:07:02.589Z,-918.10
2019-02-18T11:08:02.792Z,-911.13
2019-02-18T11:09:03.022Z,-913.43
2019-02-18T11:10:03.277Z,-908.08
2019-02-18T11:11:03.474Z,-909.74
2019-02-18T11:12:03.786Z,-912.81
2019-02-18T11:13:04.059Z,-916.84
2019-02-18T11:14:04.216Z,-906.84
2019-02-18T11:15:04.476Z,-905.51
2019-02-18T11:16:04.690Z,-906.75
2019-02-18T11:17:04.979Z,-906.55
2019-02-18T11:18:05.150Z,-905.28
2019-02-18T11:19:05.403Z,-903.68
2019-02-18T11:20:05.654Z,-906.25
2019-02-18T11:21:05.904Z,-897.09
2019-02-18T11:22:06.137Z,-902.72
2019-02-18T11:23:06.328Z,-899.91
2019-02-18T11:24:06.586Z,-911.48
2019-02-18T11:25:06.839Z,-909.10
2019-02-18T11:26:07.059Z,-912.35
2019-02-18T11:27:07.337Z,-923.32
2019-02-18T11:28:07.540Z,-918.71
2019-02-18T11:29:07.795Z,-907.43
2019-02-18T11:30:08.120Z,-912.26
2019-02-18T11:31:08.255Z,-906.24
2019-02-18T11:32:08.507Z,-917.29
2019-02-18T11:33:08.735Z,-908.38
2019-02-18T11:34:08.950Z,-907.12
2019-02-18T11:35:09.219Z,-897.98
2019-02-18T11:36:09.440Z,-896.70
2019-02-18T11:37:09.713Z,-904.76
2019-02-18T11:38:10.015Z,-906.01
2019-02-18T11:39:10.136Z,-914.19
2019-02-18T11:40:10.399Z,-918.87
2019-02-18T11:41:10.621Z,-915.95
2019-02-18T11:42:10.884Z,-907.95
2019-02-18T11:43:11.123Z,-909.13
2019-02-18T11:44:11.348Z,-908.63
2019-02-18T11:45:11.603Z,-912.30
2019-02-18T11:46:11.906Z,-910.20
2019-02-18T11:47:12.058Z,-906.53
2019-02-18T11:48:12.288Z,-916.19
2019-02-18T11:49:12.536Z,-913.69
2019-02-18T11:50:12.778Z,-918.46
2019-02-18T11:51:12.999Z,-910.26
2019-02-18T11:52:13.265Z,-910.36
2019-02-18T11:53:13.516Z,-912.77
2019-02-18T11:54:13.799Z,-910.16
2019-02-18T11:55:13.902Z,-902.56
2019-02-18T11:56:14.147Z,-904.26
2019-02-18T11:57:14.364Z,-893.82
2019-02-18T11:58:14.630Z,-893.87
2019-02-18T11:59:23.710Z,-899.23
2019-02-18T12:00:16.136Z,-907.56
2019-02-18T12:01:15.378Z,-908.42
2019-02-18T12:02:15.811Z,-908.04
2019-02-18T12:03:15.963Z,-899.70
2019-02-18T12:04:16.090Z,-897.69
2019-02-18T12:05:16.350Z,-890.95
2019-02-18T12:06:16.544Z,-906.52
2019-02-18T12:07:16.794Z,-901.25
2019-02-18T12:08:17.070Z,-904.82